TAP34Y BIKF-LPPT
Flight info
| Callsign | TAP34Y |
|---|---|
| Flight time | 3h 33m |
| Altitude | 41000 |
| Route | RIMUM1C RIMUM DCT RUMUX DCT RAPAX DCT AGORI/N0463F410 DCT OSBOX/M082F410 DCT LASNO DCT BEGAS/N0470F410 DCT PINEK DCT XAMAX |
| Aircraft | A332/H-SDE3GHIJ2J3J5M1RVWXY/LB2D1 |
Departure
| Time | 2026-04-27 07:07 |
|---|---|
| Airport | Keflavik International Airport (BIKF) |
Arrival
| Time | 2026-04-27 10:41 |
|---|---|
| Airport | Lisbon Humberto Delgado Airport (LPPT) |
| Time | Latitude | Longitude | Altitude | Speed | Heading |
|---|---|---|---|---|---|
| 2026-04-27 06:45 | 63.99489 | -22.62461 | 163 ft | 0 kts | 89° |
| 2026-04-27 06:57 | 63.99489 | -22.62467 | 159 ft | 2 kts | 89° |
| 2026-04-27 06:57 | 63.99488 | -22.62507 | 167 ft | 3 kts | 89° |
| 2026-04-27 06:57 | 63.99488 | -22.62546 | 167 ft | 3 kts | 89° |
| 2026-04-27 06:57 | 63.99488 | -22.62587 | 166 ft | 2 kts | 89° |
| 2026-04-27 06:58 | 63.99488 | -22.62629 | 166 ft | 3 kts | 117° |
| 2026-04-27 06:58 | 63.99502 | -22.62663 | 166 ft | 0 kts | 175° |
| 2026-04-27 07:01 | 63.99483 | -22.62661 | 170 ft | 7 kts | 180° |
| 2026-04-27 07:01 | 63.99445 | -22.62678 | 167 ft | 5 kts | 196° |
| 2026-04-27 07:01 | 63.99419 | -22.62698 | 167 ft | 3 kts | 200° |
| 2026-04-27 07:01 | 63.99393 | -22.62721 | 167 ft | 6 kts | 201° |
| 2026-04-27 07:02 | 63.99364 | -22.62740 | 167 ft | 2 kts | 191° |
| 2026-04-27 07:02 | 63.99358 | -22.62743 | 167 ft | 0 kts | 191° |
| 2026-04-27 07:02 | 63.99348 | -22.62747 | 167 ft | 5 kts | 188° |
| 2026-04-27 07:02 | 63.99287 | -22.62746 | 167 ft | 11 kts | 168° |
| 2026-04-27 07:03 | 63.99236 | -22.62694 | 166 ft | 6 kts | 155° |
| 2026-04-27 07:03 | 63.99194 | -22.62673 | 166 ft | 5 kts | 156° |
| 2026-04-27 07:03 | 63.99176 | -22.62569 | 166 ft | 11 kts | 92° |
| 2026-04-27 07:03 | 63.99173 | -22.62301 | 166 ft | 18 kts | 90° |
| 2026-04-27 07:04 | 63.99171 | -22.62051 | 167 ft | 13 kts | 91° |
| 2026-04-27 07:04 | 63.99172 | -22.61816 | 167 ft | 19 kts | 90° |
| 2026-04-27 07:04 | 63.99171 | -22.61538 | 168 ft | 15 kts | 90° |
| 2026-04-27 07:04 | 63.99171 | -22.61333 | 169 ft | 10 kts | 89° |
| 2026-04-27 07:05 | 63.99172 | -22.61153 | 170 ft | 12 kts | 90° |
| 2026-04-27 07:05 | 63.99173 | -22.60952 | 171 ft | 16 kts | 90° |
| 2026-04-27 07:05 | 63.99173 | -22.60726 | 171 ft | 12 kts | 90° |
| 2026-04-27 07:05 | 63.99165 | -22.60580 | 171 ft | 6 kts | 122° |
| 2026-04-27 07:06 | 63.99130 | -22.60547 | 172 ft | 5 kts | 173° |
| 2026-04-27 07:06 | 63.99122 | -22.60546 | 172 ft | 4 kts | 175° |
| 2026-04-27 07:06 | 63.99064 | -22.60540 | 170 ft | 0 kts | 182° |
| 2026-04-27 07:06 | 63.98922 | -22.60544 | 165 ft | 46 kts | 180° |
| 2026-04-27 07:07 | 63.98430 | -22.60545 | 154 ft | 93 kts | 180° |
| 2026-04-27 07:07 | 63.97652 | -22.60539 | 175 ft | 129 kts | 178° |
| 2026-04-27 07:07 | 63.96723 | -22.60592 | 529 ft | 138 kts | 180° |
| 2026-04-27 07:07 | 63.95736 | -22.60684 | 1034 ft | 145 kts | 182° |
| 2026-04-27 07:08 | 63.94716 | -22.60752 | 1569 ft | 152 kts | 180° |
| 2026-04-27 07:08 | 63.93663 | -22.60220 | 2121 ft | 160 kts | 162° |
| 2026-04-27 07:08 | 63.92669 | -22.58990 | 2642 ft | 165 kts | 155° |
| 2026-04-27 07:08 | 63.91633 | -22.57653 | 3045 ft | 177 kts | 155° |
| 2026-04-27 07:09 | 63.90513 | -22.56230 | 3478 ft | 191 kts | 155° |
| 2026-04-27 07:09 | 63.89317 | -22.54726 | 3958 ft | 201 kts | 156° |
| 2026-04-27 07:09 | 63.88076 | -22.53184 | 4490 ft | 209 kts | 156° |
| 2026-04-27 07:09 | 63.86765 | -22.51566 | 5083 ft | 216 kts | 156° |
| 2026-04-27 07:10 | 63.85436 | -22.49931 | 5719 ft | 222 kts | 156° |
| 2026-04-27 07:10 | 63.84065 | -22.48251 | 6418 ft | 226 kts | 157° |
| 2026-04-27 07:10 | 63.82664 | -22.46541 | 7130 ft | 226 kts | 157° |
| 2026-04-27 07:10 | 63.81777 | -22.45448 | 7606 ft | 220 kts | 157° |
| 2026-04-27 07:11 | 63.79913 | -22.43230 | 8570 ft | 238 kts | 161° |
| 2026-04-27 07:11 | 63.78846 | -22.42287 | 8984 ft | 247 kts | 165° |
| 2026-04-27 07:11 | 63.77214 | -22.40968 | 9802 ft | 253 kts | 165° |
| 2026-04-27 07:11 | 63.75525 | -22.39544 | 10293 ft | 267 kts | 164° |
| 2026-04-27 07:12 | 63.73749 | -22.37977 | 10560 ft | 286 kts | 163° |
| 2026-04-27 07:12 | 63.71841 | -22.36236 | 10830 ft | 305 kts | 163° |
| 2026-04-27 07:12 | 63.69822 | -22.34360 | 11089 ft | 322 kts | 163° |
| 2026-04-27 07:12 | 63.67704 | -22.32332 | 11428 ft | 336 kts | 161° |
| 2026-04-27 07:13 | 63.65584 | -22.30104 | 11948 ft | 342 kts | 160° |
| 2026-04-27 07:13 | 63.63422 | -22.27775 | 12543 ft | 346 kts | 160° |
| 2026-04-27 07:13 | 63.61233 | -22.25414 | 13144 ft | 350 kts | 161° |
| 2026-04-27 07:13 | 63.59023 | -22.23036 | 13720 ft | 354 kts | 161° |
| 2026-04-27 07:14 | 63.56786 | -22.20637 | 14167 ft | 359 kts | 162° |
| 2026-04-27 07:14 | 63.54537 | -22.18233 | 14596 ft | 365 kts | 162° |
| 2026-04-27 07:14 | 63.52235 | -22.15775 | 15110 ft | 368 kts | 162° |
| 2026-04-27 07:14 | 63.49907 | -22.13291 | 15655 ft | 371 kts | 162° |
| 2026-04-27 07:15 | 63.47566 | -22.10800 | 16170 ft | 374 kts | 162° |
| 2026-04-27 07:15 | 63.45199 | -22.08287 | 16690 ft | 377 kts | 162° |
| 2026-04-27 07:15 | 63.42817 | -22.05763 | 17204 ft | 381 kts | 162° |
| 2026-04-27 07:15 | 63.40436 | -22.03244 | 17705 ft | 384 kts | 162° |
| 2026-04-27 07:16 | 63.38002 | -22.00674 | 18206 ft | 387 kts | 162° |
| 2026-04-27 07:16 | 63.35548 | -21.98089 | 18629 ft | 390 kts | 162° |
| 2026-04-27 07:16 | 63.33109 | -21.95522 | 19080 ft | 392 kts | 162° |
| 2026-04-27 07:16 | 63.30622 | -21.92911 | 19529 ft | 395 kts | 162° |
| 2026-04-27 07:17 | 63.28119 | -21.90288 | 19902 ft | 398 kts | 162° |
| 2026-04-27 07:17 | 63.25624 | -21.87681 | 20297 ft | 402 kts | 162° |
| 2026-04-27 07:17 | 63.23085 | -21.85031 | 20728 ft | 404 kts | 162° |
| 2026-04-27 07:17 | 63.20525 | -21.82363 | 21157 ft | 406 kts | 163° |
| 2026-04-27 07:18 | 63.17958 | -21.79694 | 21577 ft | 409 kts | 163° |
| 2026-04-27 07:18 | 63.15398 | -21.77038 | 21975 ft | 411 kts | 163° |
| 2026-04-27 07:18 | 63.12795 | -21.74342 | 22383 ft | 414 kts | 163° |
| 2026-04-27 07:18 | 63.10179 | -21.71541 | 22788 ft | 420 kts | 160° |
| 2026-04-27 07:19 | 63.07668 | -21.68056 | 23184 ft | 432 kts | 151° |
| 2026-04-27 07:19 | 63.05407 | -21.63657 | 23561 ft | 443 kts | 143° |
| 2026-04-27 07:19 | 63.03228 | -21.58638 | 23873 ft | 449 kts | 140° |
| 2026-04-27 07:19 | 63.01159 | -21.53513 | 24185 ft | 453 kts | 139° |
| 2026-04-27 07:20 | 62.99085 | -21.48226 | 24504 ft | 456 kts | 139° |
| 2026-04-27 07:20 | 62.97028 | -21.42969 | 24740 ft | 461 kts | 139° |
| 2026-04-27 07:20 | 62.94919 | -21.37628 | 25032 ft | 463 kts | 139° |
| 2026-04-27 07:20 | 62.92787 | -21.32287 | 25369 ft | 465 kts | 139° |
| 2026-04-27 07:21 | 62.90635 | -21.26951 | 25695 ft | 467 kts | 139° |
| 2026-04-27 07:21 | 62.88463 | -21.21608 | 26015 ft | 469 kts | 140° |
| 2026-04-27 07:21 | 62.86300 | -21.16315 | 26315 ft | 471 kts | 140° |
| 2026-04-27 07:21 | 62.84100 | -21.10951 | 26605 ft | 473 kts | 140° |
| 2026-04-27 07:22 | 62.81887 | -21.05570 | 26901 ft | 475 kts | 140° |
| 2026-04-27 07:22 | 62.79699 | -21.00261 | 27187 ft | 477 kts | 140° |
| 2026-04-27 07:22 | 62.77468 | -20.94862 | 27379 ft | 480 kts | 140° |
| 2026-04-27 07:22 | 62.75216 | -20.89423 | 27631 ft | 483 kts | 140° |
| 2026-04-27 07:23 | 62.72954 | -20.83972 | 27915 ft | 484 kts | 140° |
| 2026-04-27 07:23 | 62.70682 | -20.78505 | 28182 ft | 486 kts | 140° |
| 2026-04-27 07:23 | 62.68437 | -20.73118 | 28457 ft | 488 kts | 140° |
| 2026-04-27 07:23 | 62.66128 | -20.67591 | 28711 ft | 490 kts | 140° |
| 2026-04-27 07:24 | 62.63830 | -20.62104 | 28973 ft | 492 kts | 140° |
| 2026-04-27 07:24 | 62.61510 | -20.56580 | 29240 ft | 494 kts | 140° |
| 2026-04-27 07:24 | 62.59211 | -20.51118 | 29501 ft | 496 kts | 140° |
| 2026-04-27 07:24 | 62.56873 | -20.45580 | 29769 ft | 498 kts | 140° |
| 2026-04-27 07:25 | 62.54526 | -20.40030 | 30060 ft | 498 kts | 140° |
| 2026-04-27 07:25 | 62.52172 | -20.34474 | 30397 ft | 497 kts | 140° |
| 2026-04-27 07:25 | 62.49861 | -20.29035 | 30718 ft | 496 kts | 140° |
| 2026-04-27 07:25 | 62.47515 | -20.23528 | 31041 ft | 496 kts | 140° |
| 2026-04-27 07:26 | 62.45171 | -20.18039 | 31335 ft | 495 kts | 140° |
| 2026-04-27 07:26 | 62.42821 | -20.12559 | 31458 ft | 499 kts | 140° |
| 2026-04-27 07:26 | 62.40450 | -20.07046 | 31687 ft | 501 kts | 140° |
| 2026-04-27 07:26 | 62.38091 | -20.01639 | 32008 ft | 497 kts | 142° |
| 2026-04-27 07:27 | 62.35587 | -19.96545 | 32323 ft | 494 kts | 144° |
| 2026-04-27 07:27 | 62.33044 | -19.91545 | 32637 ft | 492 kts | 145° |
| 2026-04-27 07:27 | 62.30488 | -19.86620 | 32864 ft | 492 kts | 145° |
| 2026-04-27 07:27 | 62.27944 | -19.81775 | 33067 ft | 494 kts | 145° |
| 2026-04-27 07:28 | 62.25365 | -19.76889 | 33330 ft | 493 kts | 145° |
| 2026-04-27 07:28 | 62.22789 | -19.72015 | 33616 ft | 493 kts | 146° |
| 2026-04-27 07:28 | 62.20202 | -19.67127 | 33905 ft | 492 kts | 146° |
| 2026-04-27 07:28 | 62.17663 | -19.62332 | 34129 ft | 492 kts | 146° |
| 2026-04-27 07:29 | 62.15094 | -19.57489 | 34344 ft | 492 kts | 146° |
| 2026-04-27 07:29 | 62.12524 | -19.52652 | 34572 ft | 491 kts | 146° |
| 2026-04-27 07:29 | 62.09952 | -19.47822 | 34784 ft | 491 kts | 146° |
| 2026-04-27 07:29 | 62.07384 | -19.43008 | 34993 ft | 491 kts | 146° |
| 2026-04-27 07:30 | 62.04809 | -19.38197 | 35127 ft | 492 kts | 145° |
| 2026-04-27 07:30 | 62.02224 | -19.33377 | 35296 ft | 493 kts | 145° |
| 2026-04-27 07:30 | 61.99670 | -19.28626 | 35510 ft | 492 kts | 145° |
| 2026-04-27 07:30 | 61.97083 | -19.23822 | 35721 ft | 492 kts | 145° |
| 2026-04-27 07:31 | 61.94498 | -19.19032 | 35920 ft | 492 kts | 146° |
| 2026-04-27 07:31 | 61.91943 | -19.14311 | 36107 ft | 492 kts | 146° |
| 2026-04-27 07:31 | 61.89359 | -19.09547 | 36297 ft | 491 kts | 146° |
| 2026-04-27 07:31 | 61.86767 | -19.04780 | 36472 ft | 491 kts | 146° |
| 2026-04-27 07:32 | 61.84208 | -19.00085 | 36659 ft | 491 kts | 146° |
| 2026-04-27 07:32 | 61.81623 | -18.95353 | 36812 ft | 491 kts | 145° |
| 2026-04-27 07:32 | 61.79036 | -18.90629 | 36937 ft | 492 kts | 145° |
| 2026-04-27 07:32 | 61.76417 | -18.85859 | 37102 ft | 493 kts | 146° |
| 2026-04-27 07:33 | 61.73851 | -18.81194 | 37277 ft | 492 kts | 146° |
| 2026-04-27 07:33 | 61.68623 | -18.71723 | 37425 ft | 497 kts | 145° |
| 2026-04-27 07:33 | 61.65990 | -18.66970 | 37600 ft | 496 kts | 145° |
| 2026-04-27 07:34 | 61.63365 | -18.62241 | 37798 ft | 496 kts | 146° |
| 2026-04-27 07:34 | 61.60744 | -18.57529 | 37981 ft | 495 kts | 146° |
| 2026-04-27 07:34 | 61.58157 | -18.52889 | 38142 ft | 495 kts | 146° |
| 2026-04-27 07:34 | 61.55527 | -18.48184 | 38249 ft | 496 kts | 145° |
| 2026-04-27 07:35 | 61.52887 | -18.43474 | 38350 ft | 496 kts | 145° |
| 2026-04-27 07:35 | 61.50207 | -18.38898 | 38501 ft | 493 kts | 150° |
| 2026-04-27 07:35 | 61.47418 | -18.34753 | 38656 ft | 491 kts | 151° |
| 2026-04-27 07:35 | 61.44641 | -18.30766 | 38786 ft | 490 kts | 152° |
| 2026-04-27 07:36 | 61.41799 | -18.26776 | 38928 ft | 489 kts | 152° |
| 2026-04-27 07:36 | 61.38964 | -18.22843 | 39059 ft | 488 kts | 153° |
| 2026-04-27 07:36 | 61.36123 | -18.18922 | 39187 ft | 488 kts | 153° |
| 2026-04-27 07:36 | 61.33318 | -18.15058 | 39294 ft | 487 kts | 152° |
| 2026-04-27 07:37 | 61.30485 | -18.11157 | 39388 ft | 488 kts | 152° |
| 2026-04-27 07:37 | 61.24807 | -18.03349 | 39527 ft | 489 kts | 152° |
| 2026-04-27 07:37 | 61.21964 | -17.99444 | 39638 ft | 489 kts | 152° |
| 2026-04-27 07:38 | 61.19162 | -17.95602 | 39755 ft | 488 kts | 152° |
| 2026-04-27 07:38 | 61.16321 | -17.91715 | 39867 ft | 488 kts | 152° |
| 2026-04-27 07:38 | 61.13486 | -17.87843 | 39975 ft | 487 kts | 152° |
| 2026-04-27 07:39 | 61.07813 | -17.80125 | 40162 ft | 487 kts | 152° |
| 2026-04-27 07:39 | 61.02169 | -17.72481 | 40280 ft | 488 kts | 152° |
| 2026-04-27 07:40 | 60.96473 | -17.64802 | 40463 ft | 487 kts | 152° |
| 2026-04-27 07:40 | 60.90821 | -17.57211 | 40651 ft | 487 kts | 151° |
| 2026-04-27 07:41 | 60.85139 | -17.49614 | 40826 ft | 486 kts | 151° |
| 2026-04-27 07:41 | 60.79466 | -17.42062 | 41006 ft | 486 kts | 151° |
| 2026-04-27 07:42 | 60.73811 | -17.34568 | 41047 ft | 487 kts | 151° |
| 2026-04-27 07:42 | 60.68101 | -17.27033 | 41151 ft | 488 kts | 151° |
| 2026-04-27 07:43 | 60.62354 | -17.19484 | 41149 ft | 492 kts | 151° |
| 2026-04-27 07:43 | 60.56614 | -17.11973 | 41157 ft | 495 kts | 151° |
| 2026-04-27 07:44 | 60.50777 | -17.04367 | 41157 ft | 498 kts | 151° |
| 2026-04-27 07:44 | 60.44942 | -16.96797 | 41166 ft | 501 kts | 151° |
| 2026-04-27 07:45 | 60.39040 | -16.89173 | 41171 ft | 505 kts | 151° |
| 2026-04-27 07:45 | 60.33095 | -16.81528 | 41181 ft | 507 kts | 151° |
| 2026-04-27 07:46 | 60.27159 | -16.73925 | 41163 ft | 507 kts | 151° |
| 2026-04-27 07:46 | 60.21174 | -16.66294 | 41186 ft | 508 kts | 151° |
| 2026-04-27 07:47 | 60.15186 | -16.58693 | 41192 ft | 508 kts | 151° |
| 2026-04-27 07:47 | 60.09224 | -16.51158 | 41192 ft | 508 kts | 151° |
| 2026-04-27 07:48 | 60.03265 | -16.43660 | 41203 ft | 508 kts | 151° |
| 2026-04-27 07:48 | 59.97247 | -16.36121 | 41204 ft | 508 kts | 151° |
| 2026-04-27 07:49 | 59.91282 | -16.28680 | 41216 ft | 508 kts | 151° |
| 2026-04-27 07:49 | 59.85273 | -16.21217 | 41222 ft | 508 kts | 151° |
| 2026-04-27 07:50 | 59.79293 | -16.13821 | 41222 ft | 508 kts | 151° |
| 2026-04-27 07:50 | 59.73274 | -16.06410 | 41228 ft | 508 kts | 151° |
| 2026-04-27 07:51 | 59.67295 | -15.99079 | 41231 ft | 508 kts | 151° |
| 2026-04-27 07:51 | 59.61269 | -15.91721 | 41235 ft | 508 kts | 151° |
| 2026-04-27 07:52 | 59.55256 | -15.84411 | 41241 ft | 508 kts | 151° |
| 2026-04-27 07:52 | 59.49220 | -15.77105 | 41228 ft | 508 kts | 151° |
| 2026-04-27 07:53 | 59.43203 | -15.69852 | 41248 ft | 510 kts | 151° |
| 2026-04-27 07:53 | 59.37125 | -15.62556 | 41249 ft | 510 kts | 151° |
| 2026-04-27 07:54 | 59.31085 | -15.55335 | 41260 ft | 510 kts | 151° |
| 2026-04-27 07:54 | 59.25009 | -15.48103 | 41244 ft | 510 kts | 151° |
| 2026-04-27 07:55 | 59.18956 | -15.40929 | 41257 ft | 510 kts | 151° |
| 2026-04-27 07:55 | 59.12910 | -15.33792 | 41261 ft | 510 kts | 151° |
| 2026-04-27 07:56 | 59.06820 | -15.26634 | 41281 ft | 510 kts | 151° |
| 2026-04-27 07:56 | 59.00715 | -15.19489 | 41271 ft | 510 kts | 151° |
| 2026-04-27 07:57 | 58.94642 | -15.12411 | 41277 ft | 511 kts | 151° |
| 2026-04-27 07:57 | 58.88572 | -15.05365 | 41284 ft | 511 kts | 151° |
| 2026-04-27 07:58 | 58.82466 | -14.98307 | 41286 ft | 511 kts | 151° |
| 2026-04-27 07:58 | 58.76348 | -14.91265 | 41294 ft | 511 kts | 151° |
| 2026-04-27 07:59 | 58.70252 | -14.84277 | 41290 ft | 511 kts | 151° |
| 2026-04-27 07:59 | 58.61088 | -14.73825 | 41303 ft | 511 kts | 151° |
| 2026-04-27 08:00 | 58.55999 | -14.68050 | 41302 ft | 511 kts | 151° |
| 2026-04-27 08:00 | 58.48862 | -14.59982 | 41314 ft | 511 kts | 151° |
| 2026-04-27 08:01 | 58.43739 | -14.54215 | 41307 ft | 511 kts | 151° |
| 2026-04-27 08:01 | 58.37589 | -14.47318 | 41306 ft | 511 kts | 151° |
| 2026-04-27 08:02 | 58.31467 | -14.40479 | 41317 ft | 511 kts | 151° |
| 2026-04-27 08:02 | 58.25345 | -14.33669 | 41316 ft | 513 kts | 151° |
| 2026-04-27 08:03 | 58.19163 | -14.26822 | 41314 ft | 514 kts | 151° |
| 2026-04-27 08:03 | 58.12970 | -14.19987 | 41318 ft | 514 kts | 151° |
| 2026-04-27 08:04 | 58.06788 | -14.13192 | 41317 ft | 514 kts | 151° |
| 2026-04-27 08:04 | 58.00638 | -14.06461 | 41327 ft | 514 kts | 151° |
| 2026-04-27 08:05 | 57.94434 | -13.99698 | 41324 ft | 514 kts | 152° |
| 2026-04-27 08:05 | 57.88233 | -13.92965 | 41330 ft | 514 kts | 152° |
| 2026-04-27 08:06 | 57.82063 | -13.86292 | 41333 ft | 514 kts | 152° |
| 2026-04-27 08:06 | 57.75855 | -13.79606 | 41336 ft | 514 kts | 152° |
| 2026-04-27 08:07 | 57.69687 | -13.72989 | 41333 ft | 514 kts | 152° |
| 2026-04-27 08:07 | 57.63466 | -13.66342 | 41335 ft | 514 kts | 152° |
| 2026-04-27 08:08 | 57.57285 | -13.59763 | 41342 ft | 514 kts | 152° |
| 2026-04-27 08:08 | 57.51063 | -13.53168 | 41342 ft | 514 kts | 152° |
| 2026-04-27 08:09 | 57.44834 | -13.46591 | 41341 ft | 514 kts | 152° |
| 2026-04-27 08:09 | 57.38636 | -13.40071 | 41345 ft | 514 kts | 152° |
| 2026-04-27 08:10 | 57.32403 | -13.33542 | 41348 ft | 514 kts | 152° |
| 2026-04-27 08:10 | 57.26200 | -13.27069 | 41349 ft | 514 kts | 152° |
| 2026-04-27 08:11 | 57.19954 | -13.20576 | 41350 ft | 513 kts | 152° |
| 2026-04-27 08:11 | 57.13757 | -13.14160 | 41353 ft | 514 kts | 152° |
| 2026-04-27 08:12 | 57.07493 | -13.07700 | 41367 ft | 515 kts | 152° |
| 2026-04-27 08:12 | 57.01271 | -13.01308 | 41363 ft | 515 kts | 152° |
| 2026-04-27 08:13 | 56.95004 | -12.94874 | 41361 ft | 514 kts | 151° |
| 2026-04-27 08:13 | 56.88790 | -12.88499 | 41362 ft | 514 kts | 151° |
| 2026-04-27 08:14 | 56.82524 | -12.82146 | 41364 ft | 514 kts | 154° |
| 2026-04-27 08:14 | 56.75858 | -12.77434 | 41365 ft | 513 kts | 163° |
| 2026-04-27 08:15 | 56.69096 | -12.73536 | 41363 ft | 511 kts | 164° |
| 2026-04-27 08:15 | 56.62273 | -12.69775 | 41377 ft | 511 kts | 164° |
| 2026-04-27 08:16 | 56.55455 | -12.66012 | 41364 ft | 511 kts | 164° |
| 2026-04-27 08:16 | 56.48675 | -12.62249 | 41380 ft | 511 kts | 164° |
| 2026-04-27 08:17 | 56.41885 | -12.58481 | 41371 ft | 510 kts | 164° |
| 2026-04-27 08:17 | 56.35122 | -12.54740 | 41377 ft | 510 kts | 164° |
| 2026-04-27 08:18 | 56.28352 | -12.51011 | 41377 ft | 509 kts | 164° |
| 2026-04-27 08:18 | 56.21548 | -12.47277 | 41374 ft | 509 kts | 164° |
| 2026-04-27 08:19 | 56.14802 | -12.43590 | 41378 ft | 509 kts | 164° |
| 2026-04-27 08:19 | 56.08008 | -12.39890 | 41380 ft | 509 kts | 164° |
| 2026-04-27 08:20 | 56.01270 | -12.36234 | 41384 ft | 509 kts | 164° |
| 2026-04-27 08:20 | 55.94489 | -12.32567 | 41378 ft | 508 kts | 164° |
| 2026-04-27 08:21 | 55.87724 | -12.28923 | 41387 ft | 508 kts | 164° |
| 2026-04-27 08:21 | 55.80934 | -12.25279 | 41388 ft | 508 kts | 164° |
| 2026-04-27 08:22 | 55.74150 | -12.21651 | 41392 ft | 508 kts | 164° |
| 2026-04-27 08:22 | 55.67419 | -12.18065 | 41390 ft | 508 kts | 164° |
| 2026-04-27 08:23 | 55.60649 | -12.14471 | 41392 ft | 508 kts | 164° |
| 2026-04-27 08:23 | 55.53873 | -12.10886 | 41395 ft | 508 kts | 164° |
| 2026-04-27 08:24 | 55.47091 | -12.07311 | 41395 ft | 508 kts | 164° |
| 2026-04-27 08:24 | 55.40322 | -12.03756 | 41395 ft | 508 kts | 164° |
| 2026-04-27 08:25 | 55.33557 | -12.00216 | 41398 ft | 508 kts | 164° |
| 2026-04-27 08:25 | 55.26757 | -11.96670 | 41398 ft | 508 kts | 164° |
| 2026-04-27 08:26 | 55.19974 | -11.93145 | 41392 ft | 508 kts | 164° |
| 2026-04-27 08:26 | 55.13204 | -11.89640 | 41400 ft | 508 kts | 164° |
| 2026-04-27 08:27 | 55.06454 | -11.86158 | 41404 ft | 508 kts | 164° |
| 2026-04-27 08:27 | 54.99698 | -11.82684 | 41403 ft | 508 kts | 164° |
| 2026-04-27 08:28 | 54.92901 | -11.79202 | 41405 ft | 507 kts | 164° |
| 2026-04-27 08:28 | 54.86151 | -11.75756 | 41404 ft | 507 kts | 164° |
| 2026-04-27 08:29 | 54.79364 | -11.72303 | 41409 ft | 507 kts | 164° |
| 2026-04-27 08:29 | 54.72579 | -11.68863 | 41407 ft | 507 kts | 164° |
| 2026-04-27 08:30 | 54.65805 | -11.65441 | 41414 ft | 507 kts | 164° |
| 2026-04-27 08:30 | 54.59043 | -11.62037 | 41414 ft | 507 kts | 164° |
| 2026-04-27 08:31 | 54.52271 | -11.58639 | 41411 ft | 507 kts | 164° |
| 2026-04-27 08:31 | 54.45493 | -11.55251 | 41409 ft | 507 kts | 164° |
| 2026-04-27 08:32 | 54.38743 | -11.51887 | 41414 ft | 507 kts | 164° |
| 2026-04-27 08:32 | 54.32001 | -11.48540 | 41414 ft | 507 kts | 164° |
| 2026-04-27 08:33 | 54.25218 | -11.45183 | 41414 ft | 507 kts | 164° |
| 2026-04-27 08:33 | 54.18433 | -11.41837 | 41412 ft | 507 kts | 164° |
| 2026-04-27 08:34 | 54.11682 | -11.38519 | 41417 ft | 507 kts | 164° |
| 2026-04-27 08:34 | 54.04871 | -11.35183 | 41417 ft | 507 kts | 164° |
| 2026-04-27 08:35 | 53.98094 | -11.31875 | 41414 ft | 507 kts | 164° |
| 2026-04-27 08:35 | 53.91353 | -11.28596 | 41414 ft | 507 kts | 164° |
| 2026-04-27 08:36 | 53.84571 | -11.25307 | 41417 ft | 506 kts | 164° |
| 2026-04-27 08:36 | 53.77794 | -11.22032 | 41416 ft | 506 kts | 164° |
| 2026-04-27 08:37 | 53.71020 | -11.18770 | 41413 ft | 506 kts | 164° |
| 2026-04-27 08:37 | 53.64272 | -11.15531 | 41417 ft | 506 kts | 164° |
| 2026-04-27 08:38 | 53.57464 | -11.12274 | 41417 ft | 506 kts | 164° |
| 2026-04-27 08:38 | 53.50714 | -11.09056 | 41422 ft | 506 kts | 164° |
| 2026-04-27 08:39 | 53.43908 | -11.05822 | 41419 ft | 506 kts | 164° |
| 2026-04-27 08:39 | 53.37127 | -11.02610 | 41422 ft | 506 kts | 164° |
| 2026-04-27 08:40 | 53.30386 | -10.99428 | 41422 ft | 506 kts | 164° |
| 2026-04-27 08:40 | 53.23613 | -10.96241 | 41424 ft | 506 kts | 164° |
| 2026-04-27 08:41 | 53.16813 | -10.93052 | 41422 ft | 506 kts | 164° |
| 2026-04-27 08:41 | 53.10054 | -10.89892 | 41422 ft | 506 kts | 164° |
| 2026-04-27 08:42 | 53.03264 | -10.86729 | 41419 ft | 506 kts | 164° |
| 2026-04-27 08:42 | 52.96517 | -10.83595 | 41418 ft | 506 kts | 164° |
| 2026-04-27 08:43 | 52.89738 | -10.80458 | 41422 ft | 506 kts | 164° |
| 2026-04-27 08:43 | 52.82928 | -10.77316 | 41422 ft | 506 kts | 164° |
| 2026-04-27 08:44 | 52.76153 | -10.74200 | 41417 ft | 506 kts | 164° |
| 2026-04-27 08:44 | 52.69369 | -10.71090 | 41421 ft | 505 kts | 164° |
| 2026-04-27 08:45 | 52.62625 | -10.68008 | 41419 ft | 505 kts | 164° |
| 2026-04-27 08:45 | 52.55830 | -10.64914 | 41419 ft | 505 kts | 164° |
| 2026-04-27 08:46 | 52.49043 | -10.61832 | 41422 ft | 505 kts | 164° |
| 2026-04-27 08:46 | 52.42284 | -10.58774 | 41420 ft | 505 kts | 164° |
| 2026-04-27 08:47 | 52.36633 | -10.56224 | 41418 ft | 505 kts | 164° |
| 2026-04-27 08:47 | 52.28759 | -10.52682 | 41413 ft | 505 kts | 164° |
| 2026-04-27 08:48 | 52.23100 | -10.50144 | 41414 ft | 504 kts | 164° |
| 2026-04-27 08:48 | 52.16342 | -10.47123 | 41415 ft | 504 kts | 164° |
| 2026-04-27 08:49 | 52.09572 | -10.44106 | 41410 ft | 504 kts | 164° |
| 2026-04-27 08:49 | 52.02807 | -10.41101 | 41414 ft | 504 kts | 164° |
| 2026-04-27 08:50 | 51.96043 | -10.38105 | 41412 ft | 504 kts | 164° |
| 2026-04-27 08:50 | 51.89248 | -10.35105 | 41412 ft | 504 kts | 164° |
| 2026-04-27 08:51 | 51.82493 | -10.32132 | 41411 ft | 504 kts | 164° |
| 2026-04-27 08:51 | 51.75731 | -10.29165 | 41409 ft | 505 kts | 164° |
| 2026-04-27 08:52 | 51.68943 | -10.26196 | 41406 ft | 505 kts | 164° |
| 2026-04-27 08:52 | 51.62164 | -10.23240 | 41401 ft | 505 kts | 164° |
| 2026-04-27 08:53 | 51.55409 | -10.20304 | 41399 ft | 504 kts | 164° |
| 2026-04-27 08:53 | 51.48628 | -10.17365 | 41401 ft | 504 kts | 164° |
| 2026-04-27 08:54 | 51.41846 | -10.14436 | 41396 ft | 504 kts | 164° |
| 2026-04-27 08:54 | 51.35076 | -10.11520 | 41399 ft | 503 kts | 164° |
| 2026-04-27 08:55 | 51.28324 | -10.08621 | 41397 ft | 503 kts | 164° |
| 2026-04-27 08:55 | 51.21536 | -10.05715 | 41394 ft | 503 kts | 164° |
| 2026-04-27 08:56 | 51.14790 | -10.02836 | 41393 ft | 503 kts | 164° |
| 2026-04-27 08:56 | 51.08028 | -9.99959 | 41389 ft | 503 kts | 164° |
| 2026-04-27 08:57 | 50.97906 | -9.95669 | 41386 ft | 503 kts | 164° |
| 2026-04-27 08:58 | 50.91143 | -9.92813 | 41390 ft | 503 kts | 164° |
| 2026-04-27 08:58 | 50.84373 | -9.89963 | 41386 ft | 504 kts | 164° |
| 2026-04-27 08:59 | 50.77581 | -9.87112 | 41387 ft | 504 kts | 164° |
| 2026-04-27 08:59 | 50.70810 | -9.84279 | 41387 ft | 504 kts | 164° |
| 2026-04-27 09:00 | 50.64048 | -9.81458 | 41383 ft | 504 kts | 164° |
| 2026-04-27 09:00 | 50.57277 | -9.78641 | 41386 ft | 504 kts | 164° |
| 2026-04-27 09:01 | 50.50513 | -9.75835 | 41386 ft | 504 kts | 164° |
| 2026-04-27 09:01 | 50.43729 | -9.73030 | 41383 ft | 504 kts | 164° |
| 2026-04-27 09:02 | 50.36940 | -9.70231 | 41379 ft | 504 kts | 165° |
| 2026-04-27 09:02 | 50.30146 | -9.67438 | 41380 ft | 504 kts | 165° |
| 2026-04-27 09:03 | 50.23391 | -9.64669 | 41376 ft | 504 kts | 165° |
| 2026-04-27 09:03 | 50.16598 | -9.61893 | 41372 ft | 504 kts | 165° |
| 2026-04-27 09:04 | 50.09788 | -9.59118 | 41371 ft | 504 kts | 165° |
| 2026-04-27 09:04 | 50.03016 | -9.56367 | 41371 ft | 504 kts | 165° |
| 2026-04-27 09:05 | 49.96207 | -9.53609 | 41372 ft | 504 kts | 165° |
| 2026-04-27 09:05 | 49.89443 | -9.50877 | 41367 ft | 504 kts | 165° |
| 2026-04-27 09:06 | 49.82652 | -9.48142 | 41361 ft | 504 kts | 165° |
| 2026-04-27 09:06 | 49.75870 | -9.45418 | 41357 ft | 504 kts | 165° |
| 2026-04-27 09:07 | 49.69073 | -9.42697 | 41357 ft | 504 kts | 165° |
| 2026-04-27 09:07 | 49.62288 | -9.39988 | 41357 ft | 504 kts | 165° |
| 2026-04-27 09:08 | 49.55475 | -9.37276 | 41355 ft | 504 kts | 165° |
| 2026-04-27 09:08 | 49.48683 | -9.34580 | 41350 ft | 504 kts | 165° |
| 2026-04-27 09:09 | 49.41917 | -9.31901 | 41348 ft | 504 kts | 165° |
| 2026-04-27 09:09 | 49.35103 | -9.29212 | 41348 ft | 505 kts | 165° |
| 2026-04-27 09:10 | 49.28297 | -9.26533 | 41344 ft | 504 kts | 165° |
| 2026-04-27 09:10 | 49.21539 | -9.23881 | 41339 ft | 505 kts | 165° |
| 2026-04-27 09:11 | 49.14711 | -9.21208 | 41336 ft | 505 kts | 165° |
| 2026-04-27 09:11 | 49.07924 | -9.18560 | 41336 ft | 504 kts | 165° |
| 2026-04-27 09:12 | 49.01116 | -9.15911 | 41335 ft | 505 kts | 165° |
| 2026-04-27 09:12 | 48.94335 | -9.13280 | 41329 ft | 504 kts | 165° |
| 2026-04-27 09:13 | 48.87553 | -9.10655 | 41328 ft | 505 kts | 165° |
| 2026-04-27 09:13 | 48.80754 | -9.08032 | 41327 ft | 503 kts | 165° |
| 2026-04-27 09:14 | 48.73963 | -9.05419 | 41327 ft | 504 kts | 166° |
| 2026-04-27 09:14 | 48.67146 | -9.02802 | 41324 ft | 504 kts | 166° |
| 2026-04-27 09:15 | 48.60315 | -9.00467 | 41327 ft | 503 kts | 173° |
| 2026-04-27 09:15 | 48.53348 | -8.99931 | 41321 ft | 503 kts | 180° |
| 2026-04-27 09:16 | 48.46362 | -8.99902 | 41316 ft | 504 kts | 181° |
| 2026-04-27 09:16 | 48.39347 | -8.99964 | 41319 ft | 503 kts | 180° |
| 2026-04-27 09:17 | 48.32320 | -8.99999 | 41315 ft | 503 kts | 180° |
| 2026-04-27 09:17 | 48.25354 | -9.00007 | 41311 ft | 503 kts | 181° |
| 2026-04-27 09:18 | 48.18333 | -9.00005 | 41313 ft | 502 kts | 180° |
| 2026-04-27 09:18 | 48.11362 | -9.00003 | 41318 ft | 502 kts | 180° |
| 2026-04-27 09:19 | 48.04361 | -9.00002 | 41313 ft | 501 kts | 180° |
| 2026-04-27 09:19 | 47.97419 | -9.00002 | 41309 ft | 501 kts | 180° |
| 2026-04-27 09:20 | 47.90431 | -9.00002 | 41307 ft | 502 kts | 180° |
| 2026-04-27 09:20 | 47.83433 | -9.00002 | 41305 ft | 501 kts | 181° |
| 2026-04-27 09:21 | 47.76485 | -9.00002 | 41303 ft | 502 kts | 181° |
| 2026-04-27 09:21 | 47.69489 | -9.00003 | 41301 ft | 501 kts | 181° |
| 2026-04-27 09:22 | 47.62546 | -9.00003 | 41303 ft | 499 kts | 181° |
| 2026-04-27 09:22 | 47.55553 | -9.00002 | 41300 ft | 501 kts | 181° |
| 2026-04-27 09:23 | 47.48627 | -9.00003 | 41297 ft | 500 kts | 180° |
| 2026-04-27 09:23 | 47.41642 | -9.00003 | 41289 ft | 500 kts | 181° |
| 2026-04-27 09:24 | 47.34673 | -9.00002 | 41295 ft | 501 kts | 181° |
| 2026-04-27 09:24 | 47.27735 | -9.00003 | 41291 ft | 500 kts | 181° |
| 2026-04-27 09:25 | 47.20750 | -9.00002 | 41289 ft | 500 kts | 181° |
| 2026-04-27 09:25 | 47.13832 | -9.00002 | 41289 ft | 500 kts | 182° |
| 2026-04-27 09:26 | 47.06861 | -9.00002 | 41292 ft | 499 kts | 181° |
| 2026-04-27 09:26 | 46.99902 | -9.00002 | 41288 ft | 500 kts | 181° |
| 2026-04-27 09:27 | 46.92945 | -9.00002 | 41288 ft | 499 kts | 182° |
| 2026-04-27 09:27 | 46.86005 | -9.00003 | 41284 ft | 499 kts | 181° |
| 2026-04-27 09:28 | 46.79088 | -9.00002 | 41285 ft | 499 kts | 182° |
| 2026-04-27 09:28 | 46.72137 | -9.00003 | 41287 ft | 498 kts | 181° |
| 2026-04-27 09:29 | 46.65195 | -9.00003 | 41285 ft | 498 kts | 181° |
| 2026-04-27 09:29 | 46.58255 | -9.00003 | 41281 ft | 497 kts | 181° |
| 2026-04-27 09:30 | 46.51371 | -9.00003 | 41285 ft | 498 kts | 181° |
| 2026-04-27 09:30 | 46.44438 | -9.00003 | 41281 ft | 499 kts | 182° |
| 2026-04-27 09:31 | 46.37473 | -9.00003 | 41284 ft | 498 kts | 182° |
| 2026-04-27 09:31 | 46.30565 | -9.00003 | 41281 ft | 498 kts | 182° |
| 2026-04-27 09:32 | 46.23635 | -9.00002 | 41277 ft | 498 kts | 181° |
| 2026-04-27 09:32 | 46.16736 | -9.00003 | 41279 ft | 497 kts | 181° |
| 2026-04-27 09:33 | 46.09811 | -9.00002 | 41278 ft | 498 kts | 182° |
| 2026-04-27 09:33 | 46.02886 | -9.00002 | 41281 ft | 497 kts | 181° |
| 2026-04-27 09:34 | 45.97135 | -9.00002 | 41277 ft | 495 kts | 181° |
| 2026-04-27 09:34 | 45.90263 | -9.00002 | 41274 ft | 495 kts | 182° |
| 2026-04-27 09:35 | 45.83357 | -9.00003 | 41271 ft | 495 kts | 181° |
| 2026-04-27 09:35 | 45.76481 | -9.00002 | 41278 ft | 491 kts | 182° |
| 2026-04-27 09:36 | 45.69639 | -9.00002 | 41276 ft | 491 kts | 181° |
| 2026-04-27 09:36 | 45.62822 | -9.00002 | 41265 ft | 491 kts | 182° |
| 2026-04-27 09:37 | 45.56020 | -9.00002 | 41264 ft | 490 kts | 182° |
| 2026-04-27 09:37 | 45.49171 | -9.00003 | 41261 ft | 490 kts | 181° |
| 2026-04-27 09:38 | 45.42368 | -9.00002 | 41265 ft | 491 kts | 182° |
| 2026-04-27 09:38 | 45.35529 | -9.00002 | 41260 ft | 489 kts | 182° |
| 2026-04-27 09:39 | 45.28748 | -9.00002 | 41262 ft | 489 kts | 182° |
| 2026-04-27 09:39 | 45.21920 | -9.00002 | 41252 ft | 489 kts | 182° |
| 2026-04-27 09:40 | 45.15162 | -9.00002 | 41253 ft | 488 kts | 182° |
| 2026-04-27 09:40 | 45.08347 | -9.00002 | 41253 ft | 488 kts | 182° |
| 2026-04-27 09:41 | 45.01574 | -9.00002 | 41240 ft | 486 kts | 182° |
| 2026-04-27 09:41 | 44.94828 | -8.99447 | 41246 ft | 487 kts | 178° |
| 2026-04-27 09:42 | 44.88069 | -8.98572 | 41246 ft | 488 kts | 176° |
| 2026-04-27 09:42 | 44.81292 | -8.97636 | 41242 ft | 488 kts | 177° |
| 2026-04-27 09:43 | 44.74527 | -8.96711 | 41238 ft | 488 kts | 177° |
| 2026-04-27 09:43 | 44.67807 | -8.95808 | 41241 ft | 488 kts | 176° |
| 2026-04-27 09:44 | 44.61036 | -8.94904 | 41234 ft | 488 kts | 177° |
| 2026-04-27 09:44 | 44.54254 | -8.94003 | 41233 ft | 488 kts | 177° |
| 2026-04-27 09:45 | 44.47534 | -8.93111 | 41230 ft | 488 kts | 177° |
| 2026-04-27 09:45 | 44.40772 | -8.92215 | 41227 ft | 488 kts | 177° |
| 2026-04-27 09:46 | 44.33999 | -8.91319 | 41225 ft | 488 kts | 177° |
| 2026-04-27 09:46 | 44.27255 | -8.90430 | 41224 ft | 488 kts | 177° |
| 2026-04-27 09:47 | 44.20484 | -8.89539 | 41219 ft | 488 kts | 177° |
| 2026-04-27 09:47 | 44.13762 | -8.88657 | 41216 ft | 488 kts | 177° |
| 2026-04-27 09:48 | 44.06983 | -8.87768 | 41204 ft | 488 kts | 178° |
| 2026-04-27 09:48 | 44.00241 | -8.86887 | 41205 ft | 488 kts | 178° |
| 2026-04-27 09:49 | 43.93460 | -8.86003 | 41197 ft | 488 kts | 177° |
| 2026-04-27 09:49 | 43.86731 | -8.85128 | 41187 ft | 487 kts | 177° |
| 2026-04-27 09:50 | 43.79960 | -8.84249 | 41183 ft | 487 kts | 177° |
| 2026-04-27 09:50 | 43.73229 | -8.83377 | 41183 ft | 487 kts | 178° |
| 2026-04-27 09:51 | 43.66470 | -8.82504 | 41177 ft | 486 kts | 178° |
| 2026-04-27 09:51 | 43.59763 | -8.81640 | 41173 ft | 486 kts | 176° |
| 2026-04-27 09:52 | 43.53015 | -8.80771 | 41167 ft | 486 kts | 177° |
| 2026-04-27 09:52 | 43.46281 | -8.79908 | 41159 ft | 486 kts | 178° |
| 2026-04-27 09:53 | 43.39582 | -8.79050 | 41157 ft | 485 kts | 178° |
| 2026-04-27 09:53 | 43.32831 | -8.78187 | 41146 ft | 485 kts | 178° |
| 2026-04-27 09:54 | 43.26125 | -8.77332 | 41147 ft | 484 kts | 177° |
| 2026-04-27 09:54 | 43.19395 | -8.76476 | 41141 ft | 484 kts | 177° |
| 2026-04-27 09:55 | 43.12710 | -8.75628 | 41135 ft | 484 kts | 178° |
| 2026-04-27 09:55 | 43.02632 | -8.74353 | 41127 ft | 483 kts | 177° |
| 2026-04-27 09:56 | 42.95954 | -8.73510 | 41121 ft | 483 kts | 177° |
| 2026-04-27 09:56 | 42.89239 | -8.72665 | 41090 ft | 483 kts | 177° |
| 2026-04-27 09:57 | 42.82601 | -8.71831 | 41093 ft | 481 kts | 177° |
| 2026-04-27 09:57 | 42.75934 | -8.70994 | 41096 ft | 481 kts | 177° |
| 2026-04-27 09:58 | 42.69256 | -8.70158 | 41086 ft | 481 kts | 177° |
| 2026-04-27 09:58 | 42.62694 | -8.69336 | 41079 ft | 468 kts | 178° |
| 2026-04-27 09:59 | 42.56241 | -8.68530 | 41077 ft | 463 kts | 178° |
| 2026-04-27 09:59 | 42.49857 | -8.67738 | 41075 ft | 463 kts | 178° |
| 2026-04-27 10:00 | 42.43429 | -8.66946 | 41074 ft | 463 kts | 178° |
| 2026-04-27 10:00 | 42.36994 | -8.66460 | 41071 ft | 462 kts | 180° |
| 2026-04-27 10:01 | 42.30559 | -8.66092 | 41070 ft | 462 kts | 180° |
| 2026-04-27 10:01 | 42.24162 | -8.65715 | 41072 ft | 462 kts | 180° |
| 2026-04-27 10:02 | 42.17733 | -8.65331 | 41054 ft | 461 kts | 180° |
| 2026-04-27 10:02 | 42.11337 | -8.64949 | 41052 ft | 461 kts | 180° |
| 2026-04-27 10:03 | 42.04911 | -8.64565 | 41053 ft | 461 kts | 180° |
| 2026-04-27 10:03 | 41.98522 | -8.64184 | 41052 ft | 462 kts | 180° |
| 2026-04-27 10:04 | 41.92095 | -8.63801 | 41051 ft | 462 kts | 180° |
| 2026-04-27 10:04 | 41.85672 | -8.63419 | 41045 ft | 462 kts | 180° |
| 2026-04-27 10:05 | 41.79281 | -8.63040 | 41048 ft | 462 kts | 180° |
| 2026-04-27 10:05 | 41.72847 | -8.62660 | 41048 ft | 462 kts | 180° |
| 2026-04-27 10:06 | 41.66413 | -8.62280 | 41049 ft | 462 kts | 180° |
| 2026-04-27 10:06 | 41.60018 | -8.61903 | 41044 ft | 462 kts | 180° |
| 2026-04-27 10:07 | 41.53571 | -8.61523 | 41042 ft | 463 kts | 180° |
| 2026-04-27 10:07 | 41.47126 | -8.61145 | 41045 ft | 463 kts | 180° |
| 2026-04-27 10:08 | 41.40683 | -8.60767 | 41046 ft | 463 kts | 180° |
| 2026-04-27 10:08 | 41.34292 | -8.60394 | 41047 ft | 462 kts | 180° |
| 2026-04-27 10:09 | 41.27864 | -8.60018 | 41048 ft | 462 kts | 180° |
| 2026-04-27 10:09 | 41.21421 | -8.59643 | 41045 ft | 462 kts | 180° |
| 2026-04-27 10:10 | 41.14985 | -8.59268 | 41048 ft | 462 kts | 180° |
| 2026-04-27 10:10 | 41.08559 | -8.58895 | 40832 ft | 462 kts | 180° |
| 2026-04-27 10:11 | 41.05361 | -8.58709 | 40590 ft | 460 kts | 180° |
| 2026-04-27 10:11 | 41.02205 | -8.58526 | 40339 ft | 459 kts | 180° |
| 2026-04-27 10:11 | 40.98966 | -8.58339 | 40102 ft | 458 kts | 180° |
| 2026-04-27 10:11 | 40.95826 | -8.58157 | 39865 ft | 458 kts | 180° |
| 2026-04-27 10:12 | 40.92648 | -8.57974 | 39633 ft | 457 kts | 180° |
| 2026-04-27 10:12 | 40.89466 | -8.57791 | 39399 ft | 456 kts | 180° |
| 2026-04-27 10:12 | 40.86289 | -8.57609 | 39170 ft | 456 kts | 180° |
| 2026-04-27 10:12 | 40.83123 | -8.57426 | 38949 ft | 455 kts | 180° |
| 2026-04-27 10:13 | 40.79948 | -8.57243 | 38712 ft | 455 kts | 180° |
| 2026-04-27 10:13 | 40.76787 | -8.57062 | 38439 ft | 454 kts | 180° |
| 2026-04-27 10:13 | 40.73616 | -8.56880 | 38156 ft | 454 kts | 180° |
| 2026-04-27 10:13 | 40.70494 | -8.56699 | 37880 ft | 455 kts | 180° |
| 2026-04-27 10:14 | 40.67320 | -8.56517 | 37604 ft | 455 kts | 180° |
| 2026-04-27 10:14 | 40.64153 | -8.56337 | 37337 ft | 456 kts | 180° |
| 2026-04-27 10:14 | 40.60970 | -8.56155 | 37067 ft | 456 kts | 180° |
| 2026-04-27 10:14 | 40.57798 | -8.55975 | 36790 ft | 456 kts | 180° |
| 2026-04-27 10:15 | 40.54623 | -8.55794 | 36529 ft | 457 kts | 180° |
| 2026-04-27 10:15 | 40.51439 | -8.55613 | 36272 ft | 457 kts | 180° |
| 2026-04-27 10:15 | 40.48261 | -8.55431 | 36018 ft | 458 kts | 180° |
| 2026-04-27 10:15 | 40.45075 | -8.55250 | 35697 ft | 458 kts | 180° |
| 2026-04-27 10:16 | 40.41919 | -8.55071 | 35040 ft | 460 kts | 180° |
| 2026-04-27 10:16 | 40.38720 | -8.54889 | 34528 ft | 458 kts | 180° |
| 2026-04-27 10:16 | 40.35542 | -8.54708 | 33985 ft | 457 kts | 180° |
| 2026-04-27 10:16 | 40.32369 | -8.54528 | 33281 ft | 457 kts | 180° |
| 2026-04-27 10:17 | 40.29181 | -8.54347 | 32545 ft | 458 kts | 180° |
| 2026-04-27 10:17 | 40.25992 | -8.54214 | 31801 ft | 459 kts | 183° |
| 2026-04-27 10:17 | 40.22807 | -8.54502 | 31023 ft | 458 kts | 190° |
| 2026-04-27 10:17 | 40.19694 | -8.55380 | 30245 ft | 458 kts | 199° |
| 2026-04-27 10:18 | 40.17709 | -8.56320 | 29715 ft | 457 kts | 204° |
| 2026-04-27 10:18 | 40.13905 | -8.58629 | 28968 ft | 452 kts | 207° |
| 2026-04-27 10:18 | 40.11077 | -8.60444 | 28570 ft | 452 kts | 207° |
| 2026-04-27 10:18 | 40.08256 | -8.62260 | 27805 ft | 452 kts | 207° |
| 2026-04-27 10:19 | 40.05452 | -8.64061 | 27234 ft | 447 kts | 207° |
| 2026-04-27 10:19 | 40.02669 | -8.65844 | 26656 ft | 443 kts | 207° |
| 2026-04-27 10:19 | 40.00804 | -8.67037 | 26269 ft | 441 kts | 207° |
| 2026-04-27 10:19 | 39.98087 | -8.68775 | 25681 ft | 438 kts | 207° |
| 2026-04-27 10:20 | 39.95359 | -8.70517 | 25082 ft | 435 kts | 207° |
| 2026-04-27 10:20 | 39.92625 | -8.72261 | 24780 ft | 442 kts | 207° |
| 2026-04-27 10:20 | 39.89829 | -8.74043 | 24548 ft | 447 kts | 206° |
| 2026-04-27 10:20 | 39.87027 | -8.75827 | 24306 ft | 447 kts | 206° |
| 2026-04-27 10:21 | 39.84273 | -8.77578 | 24030 ft | 444 kts | 206° |
| 2026-04-27 10:21 | 39.81504 | -8.79337 | 23499 ft | 439 kts | 206° |
| 2026-04-27 10:21 | 39.78781 | -8.81065 | 23058 ft | 430 kts | 206° |
| 2026-04-27 10:21 | 39.76110 | -8.82759 | 22504 ft | 425 kts | 206° |
| 2026-04-27 10:22 | 39.73460 | -8.84439 | 21902 ft | 421 kts | 206° |
| 2026-04-27 10:22 | 39.70834 | -8.86102 | 21301 ft | 418 kts | 206° |
| 2026-04-27 10:22 | 39.68234 | -8.87747 | 20692 ft | 415 kts | 206° |
| 2026-04-27 10:22 | 39.65679 | -8.89362 | 20175 ft | 410 kts | 206° |
| 2026-04-27 10:23 | 39.63124 | -8.90976 | 19596 ft | 407 kts | 206° |
| 2026-04-27 10:23 | 39.60570 | -8.92588 | 18954 ft | 406 kts | 206° |
| 2026-04-27 10:23 | 39.58029 | -8.94190 | 18364 ft | 405 kts | 206° |
| 2026-04-27 10:23 | 39.55502 | -8.95783 | 17718 ft | 402 kts | 205° |
| 2026-04-27 10:24 | 39.52994 | -8.97362 | 17125 ft | 399 kts | 205° |
| 2026-04-27 10:24 | 39.50508 | -8.98926 | 16546 ft | 395 kts | 205° |
| 2026-04-27 10:24 | 39.48042 | -9.00476 | 15959 ft | 392 kts | 205° |
| 2026-04-27 10:24 | 39.45632 | -9.01990 | 15596 ft | 388 kts | 205° |
| 2026-04-27 10:25 | 39.43201 | -9.03515 | 15342 ft | 388 kts | 205° |
| 2026-04-27 10:25 | 39.40768 | -9.05040 | 15104 ft | 388 kts | 205° |
| 2026-04-27 10:25 | 39.38334 | -9.06567 | 14857 ft | 387 kts | 205° |
| 2026-04-27 10:25 | 39.35914 | -9.08083 | 14625 ft | 385 kts | 205° |
| 2026-04-27 10:26 | 39.33500 | -9.09593 | 14396 ft | 384 kts | 204° |
| 2026-04-27 10:26 | 39.31089 | -9.11098 | 14161 ft | 384 kts | 204° |
| 2026-04-27 10:26 | 39.28716 | -9.12580 | 13926 ft | 383 kts | 204° |
| 2026-04-27 10:26 | 39.26314 | -9.14079 | 13666 ft | 382 kts | 204° |
| 2026-04-27 10:27 | 39.23922 | -9.15571 | 13415 ft | 381 kts | 205° |
| 2026-04-27 10:27 | 39.21535 | -9.17058 | 13147 ft | 380 kts | 204° |
| 2026-04-27 10:27 | 39.19158 | -9.18539 | 12882 ft | 378 kts | 205° |
| 2026-04-27 10:27 | 39.16819 | -9.19994 | 12614 ft | 376 kts | 205° |
| 2026-04-27 10:28 | 39.14436 | -9.21476 | 12379 ft | 375 kts | 205° |
| 2026-04-27 10:28 | 39.12119 | -9.22916 | 12125 ft | 374 kts | 204° |
| 2026-04-27 10:28 | 39.09779 | -9.24368 | 11865 ft | 372 kts | 204° |
| 2026-04-27 10:28 | 39.07446 | -9.25816 | 11624 ft | 371 kts | 204° |
| 2026-04-27 10:29 | 39.05123 | -9.27257 | 11368 ft | 370 kts | 204° |
| 2026-04-27 10:29 | 39.02810 | -9.28689 | 11127 ft | 368 kts | 204° |
| 2026-04-27 10:29 | 39.00503 | -9.30117 | 11011 ft | 367 kts | 204° |
| 2026-04-27 10:29 | 38.98195 | -9.31545 | 10924 ft | 367 kts | 205° |
| 2026-04-27 10:30 | 38.95891 | -9.32969 | 10675 ft | 366 kts | 204° |
| 2026-04-27 10:30 | 38.93596 | -9.34386 | 10428 ft | 366 kts | 204° |
| 2026-04-27 10:30 | 38.91332 | -9.35783 | 10202 ft | 365 kts | 204° |
| 2026-04-27 10:30 | 38.89047 | -9.37192 | 9972 ft | 364 kts | 204° |
| 2026-04-27 10:31 | 38.86798 | -9.38580 | 9732 ft | 351 kts | 204° |
| 2026-04-27 10:31 | 38.84643 | -9.39910 | 9471 ft | 335 kts | 204° |
| 2026-04-27 10:31 | 38.82597 | -9.41171 | 9332 ft | 317 kts | 204° |
| 2026-04-27 10:31 | 38.80644 | -9.42373 | 9194 ft | 305 kts | 204° |
| 2026-04-27 10:32 | 38.78763 | -9.43529 | 9059 ft | 295 kts | 204° |
| 2026-04-27 10:32 | 38.76921 | -9.44661 | 8907 ft | 292 kts | 204° |
| 2026-04-27 10:32 | 38.75073 | -9.45751 | 8528 ft | 292 kts | 199° |
| 2026-04-27 10:32 | 38.73121 | -9.46364 | 8167 ft | 288 kts | 185° |
| 2026-04-27 10:33 | 38.71146 | -9.46521 | 7781 ft | 288 kts | 179° |
| 2026-04-27 10:33 | 38.69149 | -9.46541 | 7469 ft | 286 kts | 177° |
| 2026-04-27 10:33 | 38.67189 | -9.46422 | 7233 ft | 278 kts | 168° |
| 2026-04-27 10:33 | 38.65375 | -9.45730 | 7096 ft | 265 kts | 151° |
| 2026-04-27 10:34 | 38.63940 | -9.44375 | 7013 ft | 250 kts | 130° |
| 2026-04-27 10:34 | 38.63105 | -9.42527 | 6982 ft | 234 kts | 109° |
| 2026-04-27 10:34 | 38.62633 | -9.40579 | 6867 ft | 226 kts | 104° |
| 2026-04-27 10:34 | 38.62236 | -9.38654 | 6666 ft | 223 kts | 103° |
| 2026-04-27 10:35 | 38.61854 | -9.36737 | 6436 ft | 221 kts | 103° |
| 2026-04-27 10:35 | 38.61475 | -9.34832 | 6188 ft | 220 kts | 103° |
| 2026-04-27 10:35 | 38.61102 | -9.32967 | 5865 ft | 218 kts | 103° |
| 2026-04-27 10:35 | 38.60725 | -9.31086 | 5481 ft | 217 kts | 103° |
| 2026-04-27 10:36 | 38.60349 | -9.29220 | 5064 ft | 216 kts | 103° |
| 2026-04-27 10:36 | 38.59982 | -9.27396 | 4827 ft | 205 kts | 103° |
| 2026-04-27 10:36 | 38.59739 | -9.25663 | 4721 ft | 191 kts | 94° |
| 2026-04-27 10:36 | 38.60115 | -9.24119 | 4452 ft | 188 kts | 54° |
| 2026-04-27 10:37 | 38.61052 | -9.22958 | 4166 ft | 188 kts | 40° |
| 2026-04-27 10:37 | 38.62164 | -9.22121 | 4015 ft | 182 kts | 27° |
| 2026-04-27 10:37 | 38.63297 | -9.21512 | 3987 ft | 171 kts | 25° |
| 2026-04-27 10:37 | 38.64375 | -9.20944 | 3792 ft | 165 kts | 25° |
| 2026-04-27 10:38 | 38.65432 | -9.20381 | 3557 ft | 164 kts | 26° |
| 2026-04-27 10:38 | 38.66520 | -9.19836 | 3249 ft | 168 kts | 24° |
| 2026-04-27 10:38 | 38.67583 | -9.19305 | 2983 ft | 164 kts | 25° |
| 2026-04-27 10:38 | 38.68609 | -9.18707 | 2592 ft | 161 kts | 27° |
| 2026-04-27 10:39 | 38.69642 | -9.18171 | 2251 ft | 158 kts | 23° |
| 2026-04-27 10:39 | 38.70641 | -9.17660 | 2062 ft | 155 kts | 26° |
| 2026-04-27 10:39 | 38.71626 | -9.17072 | 1746 ft | 156 kts | 27° |
| 2026-04-27 10:39 | 38.72623 | -9.16529 | 1418 ft | 155 kts | 23° |
| 2026-04-27 10:40 | 38.73625 | -9.16048 | 1097 ft | 152 kts | 23° |
| 2026-04-27 10:40 | 38.74590 | -9.15497 | 791 ft | 149 kts | 25° |
| 2026-04-27 10:40 | 38.75511 | -9.15003 | 629 ft | 142 kts | 24° |
| 2026-04-27 10:40 | 38.76423 | -9.14517 | 410 ft | 141 kts | 23° |
| 2026-04-27 10:41 | 38.77283 | -9.14050 | 371 ft | 125 kts | 20° |
| 2026-04-27 10:41 | 38.77974 | -9.13677 | 371 ft | 93 kts | 22° |
| 2026-04-27 10:41 | 38.78329 | -9.13413 | 370 ft | 40 kts | 48° |
| 2026-04-27 10:41 | 38.78362 | -9.13281 | 368 ft | 12 kts | 120° |
| 2026-04-27 10:42 | 38.78306 | -9.13263 | 367 ft | 6 kts | 202° |
| 2026-04-27 10:42 | 38.78253 | -9.13293 | 369 ft | 14 kts | 204° |
| 2026-04-27 10:42 | 38.78159 | -9.13347 | 370 ft | 15 kts | 204° |
| 2026-04-27 10:42 | 38.78056 | -9.13405 | 364 ft | 17 kts | 204° |
| 2026-04-27 10:43 | 38.77954 | -9.13413 | 364 ft | 16 kts | 166° |
| 2026-04-27 10:43 | 38.77829 | -9.13372 | 351 ft | 21 kts | 165° |
| 2026-04-27 10:43 | 38.77668 | -9.13318 | 345 ft | 26 kts | 166° |
| 2026-04-27 10:43 | 38.77603 | -9.13287 | 341 ft | 2 kts | 134° |